sensor_id;sensor_type;location;lat;lon;timestamp;P1;P2;P0
73565;PMS5003;61846;52.970;-3.168;2022-12-10T00:01:05;4;4;
73565;PMS5003;61846;52.970;-3.168;2022-12-10T00:03:25;7;6;
73565;PMS5003;61846;52.970;-3.168;2022-12-10T00:05:51;13;10;
73565;PMS5003;61846;52.970;-3.168;2022-12-10T00:08:16;8;7;
73565;PMS5003;61846;52.970;-3.168;2022-12-10T00:10:42;5;5;
73565;PMS5003;61846;52.970;-3.168;2022-12-10T00:13:08;4;4;
73565;PMS5003;61846;52.970;-3.168;2022-12-10T00:15:34;6;6;
73565;PMS5003;61846;52.970;-3.168;2022-12-10T00:17:59;1;1;
73565;PMS5003;61846;52.970;-3.168;2022-12-10T00:20:25;3;3;
73565;PMS5003;61846;52.970;-3.168;2022-12-10T00:22:51;3;3;
73565;PMS5003;61846;52.970;-3.168;2022-12-10T00:25:17;10;3;
73565;PMS5003;61846;52.970;-3.168;2022-12-10T00:27:42;5;5;
73565;PMS5003;61846;52.970;-3.168;2022-12-10T00:30:09;5;5;
73565;PMS5003;61846;52.970;-3.168;2022-12-10T00:32:34;12;6;
73565;PMS5003;61846;52.970;-3.168;2022-12-10T00:34:59;10;9;
73565;PMS5003;61846;52.970;-3.168;2022-12-10T00:37:25;22;16;
73565;PMS5003;61846;52.970;-3.168;2022-12-10T00:39:51;11;11;
73565;PMS5003;61846;52.970;-3.168;2022-12-10T00:42:16;12;11;
73565;PMS5003;61846;52.970;-3.168;2022-12-10T00:44:42;13;12;
73565;PMS5003;61846;52.970;-3.168;2022-12-10T00:47:08;11;11;
73565;PMS5003;61846;52.970;-3.168;2022-12-10T00:49:34;20;14;
73565;PMS5003;61846;52.970;-3.168;2022-12-10T00:51:59;15;13;
73565;PMS5003;61846;52.970;-3.168;2022-12-10T00:54:25;12;10;
73565;PMS5003;61846;52.970;-3.168;2022-12-10T00:56:51;19;11;
73565;PMS5003;61846;52.970;-3.168;2022-12-10T00:59:16;12;12;
73565;PMS5003;61846;52.970;-3.168;2022-12-10T01:01:42;12;12;
73565;PMS5003;61846;52.970;-3.168;2022-12-10T01:04:08;13;13;
73565;PMS5003;61846;52.970;-3.168;2022-12-10T01:06:34;9;7;
73565;PMS5003;61846;52.970;-3.168;2022-12-10T01:08:59;9;9;
73565;PMS5003;61846;52.970;-3.168;2022-12-10T01:11:25;6;4;
73565;PMS5003;61846;52.970;-3.168;2022-12-10T01:13:51;14;6;
73565;PMS5003;61846;52.970;-3.168;2022-12-10T01:16:16;6;5;
73565;PMS5003;61846;52.970;-3.168;2022-12-10T01:18:41;6;6;
73565;PMS5003;61846;52.970;-3.168;2022-12-10T01:21:08;4;3;
73565;PMS5003;61846;52.970;-3.168;2022-12-10T01:23:33;4;4;
73565;PMS5003;61846;52.970;-3.168;2022-12-10T01:25:59;3;3;
73565;PMS5003;61846;52.970;-3.168;2022-12-10T01:28:24;4;3;
73565;PMS5003;61846;52.970;-3.168;2022-12-10T01:30:50;4;4;
73565;PMS5003;61846;52.970;-3.168;2022-12-10T01:33:16;4;4;
73565;PMS5003;61846;52.970;-3.168;2022-12-10T01:35:42;7;7;
73565;PMS5003;61846;52.970;-3.168;2022-12-10T01:38:08;5;5;
73565;PMS5003;61846;52.970;-3.168;2022-12-10T01:40:36;7;4;
73565;PMS5003;61846;52.970;-3.168;2022-12-10T01:42:59;6;6;
73565;PMS5003;61846;52.970;-3.168;2022-12-10T01:45:24;4;4;
73565;PMS5003;61846;52.970;-3.168;2022-12-10T01:47:50;6;6;
73565;PMS5003;61846;52.970;-3.168;2022-12-10T01:50:16;7;6;
73565;PMS5003;61846;52.970;-3.168;2022-12-10T01:52:42;3;3;
73565;PMS5003;61846;52.970;-3.168;2022-12-10T01:55:42;6;5;
73565;PMS5003;61846;52.970;-3.168;2022-12-10T01:57:33;5;5;
73565;PMS5003;61846;52.970;-3.168;2022-12-10T02:00:00;7;5;
73565;PMS5003;61846;52.970;-3.168;2022-12-10T02:02:29;7;6;
73565;PMS5003;61846;52.970;-3.168;2022-12-10T02:04:55;8;8;
73565;PMS5003;61846;52.970;-3.168;2022-12-10T02:07:18;7;7;
73565;PMS5003;61846;52.970;-3.168;2022-12-10T02:09:43;7;6;
73565;PMS5003;61846;52.970;-3.168;2022-12-10T02:12:10;6;6;
73565;PMS5003;61846;52.970;-3.168;2022-12-10T02:14:35;6;5;
73565;PMS5003;61846;52.970;-3.168;2022-12-10T02:16:59;6;5;
73565;PMS5003;61846;52.970;-3.168;2022-12-10T02:19:26;9;7;
73565;PMS5003;61846;52.970;-3.168;2022-12-10T02:21:51;5;4;
73565;PMS5003;61846;52.970;-3.168;2022-12-10T02:24:17;5;5;
73565;PMS5003;61846;52.970;-3.168;2022-12-10T02:26:43;5;5;
73565;PMS5003;61846;52.970;-3.168;2022-12-10T02:29:10;4;4;
73565;PMS5003;61846;52.970;-3.168;2022-12-10T02:31:33;2;2;
73565;PMS5003;61846;52.970;-3.168;2022-12-10T02:33:59;4;3;
73565;PMS5003;61846;52.970;-3.168;2022-12-10T02:36:24;6;4;
73565;PMS5003;61846;52.970;-3.168;2022-12-10T02:38:49;9;8;
73565;PMS5003;61846;52.970;-3.168;2022-12-10T02:41:15;7;5;
73565;PMS5003;61846;52.970;-3.168;2022-12-10T02:43:40;7;5;
73565;PMS5003;61846;52.970;-3.168;2022-12-10T02:46:05;8;7;
73565;PMS5003;61846;52.970;-3.168;2022-12-10T02:48:30;8;6;
73565;PMS5003;61846;52.970;-3.168;2022-12-10T02:50:56;5;4;
73565;PMS5003;61846;52.970;-3.168;2022-12-10T02:53:22;8;7;
73565;PMS5003;61846;52.970;-3.168;2022-12-10T02:55:53;7;7;
73565;PMS5003;61846;52.970;-3.168;2022-12-10T02:58:14;5;5;
73565;PMS5003;61846;52.970;-3.168;2022-12-10T03:00:41;11;9;
73565;PMS5003;61846;52.970;-3.168;2022-12-10T03:03:10;12;7;
73565;PMS5003;61846;52.970;-3.168;2022-12-10T03:05:33;6;5;
73565;PMS5003;61846;52.970;-3.168;2022-12-10T03:07:56;5;5;
73565;PMS5003;61846;52.970;-3.168;2022-12-10T03:10:24;4;3;
73565;PMS5003;61846;52.970;-3.168;2022-12-10T03:12:47;3;3;
73565;PMS5003;61846;52.970;-3.168;2022-12-10T03:15:12;4;3;
73565;PMS5003;61846;52.970;-3.168;2022-12-10T03:17:37;7;5;
73565;PMS5003;61846;52.970;-3.168;2022-12-10T03:20:03;4;4;
73565;PMS5003;61846;52.970;-3.168;2022-12-10T03:22:28;6;5;
73565;PMS5003;61846;52.970;-3.168;2022-12-10T03:24:54;6;5;
73565;PMS5003;61846;52.970;-3.168;2022-12-10T03:27:20;4;4;
73565;PMS5003;61846;52.970;-3.168;2022-12-10T03:29:46;3;3;
73565;PMS5003;61846;52.970;-3.168;2022-12-10T03:32:10;6;6;
73565;PMS5003;61846;52.970;-3.168;2022-12-10T03:34:36;4;4;
73565;PMS5003;61846;52.970;-3.168;2022-12-10T03:37:01;6;6;
73565;PMS5003;61846;52.970;-3.168;2022-12-10T03:39:27;6;6;
73565;PMS5003;61846;52.970;-3.168;2022-12-10T03:41:52;7;6;
73565;PMS5003;61846;52.970;-3.168;2022-12-10T03:46:43;5;5;
73565;PMS5003;61846;52.970;-3.168;2022-12-10T03:49:09;6;5;
73565;PMS5003;61846;52.970;-3.168;2022-12-10T03:51:33;4;4;
73565;PMS5003;61846;52.970;-3.168;2022-12-10T03:53:59;5;5;
73565;PMS5003;61846;52.970;-3.168;2022-12-10T03:56:25;6;6;
73565;PMS5003;61846;52.970;-3.168;2022-12-10T03:58:50;5;5;
73565;PMS5003;61846;52.970;-3.168;2022-12-10T04:01:16;5;5;
73565;PMS5003;61846;52.970;-3.168;2022-12-10T04:03:41;7;7;
73565;PMS5003;61846;52.970;-3.168;2022-12-10T04:06:09;6;6;
73565;PMS5003;61846;52.970;-3.168;2022-12-10T04:08:32;4;4;
73565;PMS5003;61846;52.970;-3.168;2022-12-10T04:11:01;6;4;
73565;PMS5003;61846;52.970;-3.168;2022-12-10T04:13:22;6;4;
73565;PMS5003;61846;52.970;-3.168;2022-12-10T04:15:48;4;4;
73565;PMS5003;61846;52.970;-3.168;2022-12-10T04:18:13;7;4;
73565;PMS5003;61846;52.970;-3.168;2022-12-10T04:20:39;5;5;
73565;PMS5003;61846;52.970;-3.168;2022-12-10T04:23:05;7;4;
73565;PMS5003;61846;52.970;-3.168;2022-12-10T04:25:30;6;4;
73565;PMS5003;61846;52.970;-3.168;2022-12-10T04:27:56;9;4;
73565;PMS5003;61846;52.970;-3.168;2022-12-10T04:30:22;6;5;
73565;PMS5003;61846;52.970;-3.168;2022-12-10T04:32:47;5;5;
73565;PMS5003;61846;52.970;-3.168;2022-12-10T04:35:13;7;7;
73565;PMS5003;61846;52.970;-3.168;2022-12-10T04:37:38;13;10;
73565;PMS5003;61846;52.970;-3.168;2022-12-10T04:40:04;10;10;
73565;PMS5003;61846;52.970;-3.168;2022-12-10T04:42:29;6;6;
73565;PMS5003;61846;52.970;-3.168;2022-12-10T04:44:55;7;6;
73565;PMS5003;61846;52.970;-3.168;2022-12-10T04:47:21;6;6;
73565;PMS5003;61846;52.970;-3.168;2022-12-10T04:49:46;5;5;
73565;PMS5003;61846;52.970;-3.168;2022-12-10T04:52:13;8;8;
73565;PMS5003;61846;52.970;-3.168;2022-12-10T04:54:37;15;7;
73565;PMS5003;61846;52.970;-3.168;2022-12-10T04:57:02;9;8;
73565;PMS5003;61846;52.970;-3.168;2022-12-10T04:59:28;7;6;
73565;PMS5003;61846;52.970;-3.168;2022-12-10T05:01:53;12;8;
73565;PMS5003;61846;52.970;-3.168;2022-12-10T05:04:18;6;5;
73565;PMS5003;61846;52.970;-3.168;2022-12-10T05:06:44;6;6;
73565;PMS5003;61846;52.970;-3.168;2022-12-10T05:09:09;8;8;
73565;PMS5003;61846;52.970;-3.168;2022-12-10T05:11:35;3;3;
73565;PMS5003;61846;52.970;-3.168;2022-12-10T05:14:00;4;4;
73565;PMS5003;61846;52.970;-3.168;2022-12-10T05:16:26;7;6;
73565;PMS5003;61846;52.970;-3.168;2022-12-10T05:18:51;7;6;
73565;PMS5003;61846;52.970;-3.168;2022-12-10T05:21:17;5;4;
73565;PMS5003;61846;52.970;-3.168;2022-12-10T05:23:43;6;6;
73565;PMS5003;61846;52.970;-3.168;2022-12-10T05:26:09;6;6;
73565;PMS5003;61846;52.970;-3.168;2022-12-10T05:28:34;7;7;
73565;PMS5003;61846;52.970;-3.168;2022-12-10T05:30:59;5;5;
73565;PMS5003;61846;52.970;-3.168;2022-12-10T05:33:24;7;7;
73565;PMS5003;61846;52.970;-3.168;2022-12-10T05:35:51;5;5;
73565;PMS5003;61846;52.970;-3.168;2022-12-10T05:38:15;6;6;
73565;PMS5003;61846;52.970;-3.168;2022-12-10T05:40:41;8;8;
73565;PMS5003;61846;52.970;-3.168;2022-12-10T05:43:06;7;7;
73565;PMS5003;61846;52.970;-3.168;2022-12-10T05:45:32;6;6;
73565;PMS5003;61846;52.970;-3.168;2022-12-10T05:47:57;7;7;
73565;PMS5003;61846;52.970;-3.168;2022-12-10T05:50:22;8;6;
73565;PMS5003;61846;52.970;-3.168;2022-12-10T05:52:49;7;6;
73565;PMS5003;61846;52.970;-3.168;2022-12-10T05:55:13;8;8;
73565;PMS5003;61846;52.970;-3.168;2022-12-10T05:57:39;7;7;
73565;PMS5003;61846;52.970;-3.168;2022-12-10T06:00:04;4;4;
73565;PMS5003;61846;52.970;-3.168;2022-12-10T06:02:32;12;9;
73565;PMS5003;61846;52.970;-3.168;2022-12-10T06:04:55;8;8;
73565;PMS5003;61846;52.970;-3.168;2022-12-10T06:07:21;6;6;
73565;PMS5003;61846;52.970;-3.168;2022-12-10T06:09:47;4;4;
73565;PMS5003;61846;52.970;-3.168;2022-12-10T06:12:13;3;3;
73565;PMS5003;61846;52.970;-3.168;2022-12-10T06:14:38;7;5;
73565;PMS5003;61846;52.970;-3.168;2022-12-10T06:17:03;4;4;
73565;PMS5003;61846;52.970;-3.168;2022-12-10T06:19:28;5;4;
73565;PMS5003;61846;52.970;-3.168;2022-12-10T06:21:54;5;5;
73565;PMS5003;61846;52.970;-3.168;2022-12-10T06:24:19;4;4;
73565;PMS5003;61846;52.970;-3.168;2022-12-10T06:26:46;6;5;
73565;PMS5003;61846;52.970;-3.168;2022-12-10T06:29:10;6;4;
73565;PMS5003;61846;52.970;-3.168;2022-12-10T06:31:36;5;5;
73565;PMS5003;61846;52.970;-3.168;2022-12-10T06:34:01;8;6;
73565;PMS5003;61846;52.970;-3.168;2022-12-10T06:36:27;7;6;
73565;PMS5003;61846;52.970;-3.168;2022-12-10T06:38:52;8;8;
73565;PMS5003;61846;52.970;-3.168;2022-12-10T06:41:18;7;6;
73565;PMS5003;61846;52.970;-3.168;2022-12-10T06:43:43;7;6;
73565;PMS5003;61846;52.970;-3.168;2022-12-10T06:46:09;6;6;
73565;PMS5003;61846;52.970;-3.168;2022-12-10T06:48:34;6;6;
73565;PMS5003;61846;52.970;-3.168;2022-12-10T06:51:00;8;8;
73565;PMS5003;61846;52.970;-3.168;2022-12-10T06:53:25;8;8;
73565;PMS5003;61846;52.970;-3.168;2022-12-10T06:55:51;9;9;
73565;PMS5003;61846;52.970;-3.168;2022-12-10T06:58:16;7;7;
73565;PMS5003;61846;52.970;-3.168;2022-12-10T07:00:42;10;9;
73565;PMS5003;61846;52.970;-3.168;2022-12-10T07:03:07;5;5;
73565;PMS5003;61846;52.970;-3.168;2022-12-10T07:05:33;7;7;
73565;PMS5003;61846;52.970;-3.168;2022-12-10T07:07:58;8;6;
73565;PMS5003;61846;52.970;-3.168;2022-12-10T07:10:24;16;9;
73565;PMS5003;61846;52.970;-3.168;2022-12-10T07:12:49;49;36;
73565;PMS5003;61846;52.970;-3.168;2022-12-10T07:15:14;18;14;
73565;PMS5003;61846;52.970;-3.168;2022-12-10T07:17:40;13;13;
73565;PMS5003;61846;52.970;-3.168;2022-12-10T07:20:06;17;14;
73565;PMS5003;61846;52.970;-3.168;2022-12-10T07:22:30;32;23;
73565;PMS5003;61846;52.970;-3.168;2022-12-10T07:24:56;20;16;
73565;PMS5003;61846;52.970;-3.168;2022-12-10T07:27:21;22;16;
73565;PMS5003;61846;52.970;-3.168;2022-12-10T07:29:46;36;28;
73565;PMS5003;61846;52.970;-3.168;2022-12-10T07:32:12;23;20;
73565;PMS5003;61846;52.970;-3.168;2022-12-10T07:34:38;17;17;
73565;PMS5003;61846;52.970;-3.168;2022-12-10T07:37:03;20;19;
73565;PMS5003;61846;52.970;-3.168;2022-12-10T07:39:28;16;16;
73565;PMS5003;61846;52.970;-3.168;2022-12-10T07:41:54;14;13;
73565;PMS5003;61846;52.970;-3.168;2022-12-10T07:44:20;17;11;
73565;PMS5003;61846;52.970;-3.168;2022-12-10T07:46:45;18;14;
73565;PMS5003;61846;52.970;-3.168;2022-12-10T07:49:10;14;11;
73565;PMS5003;61846;52.970;-3.168;2022-12-10T07:51:36;16;14;
73565;PMS5003;61846;52.970;-3.168;2022-12-10T07:54:01;32;19;
73565;PMS5003;61846;52.970;-3.168;2022-12-10T07:56:26;40;27;
73565;PMS5003;61846;52.970;-3.168;2022-12-10T07:58:52;21;20;
73565;PMS5003;61846;52.970;-3.168;2022-12-10T08:01:19;19;17;
73565;PMS5003;61846;52.970;-3.168;2022-12-10T08:03:43;23;19;
73565;PMS5003;61846;52.970;-3.168;2022-12-10T08:06:09;21;19;
73565;PMS5003;61846;52.970;-3.168;2022-12-10T08:08:35;21;17;
73565;PMS5003;61846;52.970;-3.168;2022-12-10T08:10:59;20;18;
73565;PMS5003;61846;52.970;-3.168;2022-12-10T08:13:25;20;16;
73565;PMS5003;61846;52.970;-3.168;2022-12-10T08:15:50;22;15;
73565;PMS5003;61846;52.970;-3.168;2022-12-10T08:18:16;22;15;
73565;PMS5003;61846;52.970;-3.168;2022-12-10T08:20:41;20;15;
73565;PMS5003;61846;52.970;-3.168;2022-12-10T08:23:07;17;15;
73565;PMS5003;61846;52.970;-3.168;2022-12-10T08:25:32;19;14;
73565;PMS5003;61846;52.970;-3.168;2022-12-10T08:27:57;16;14;
73565;PMS5003;61846;52.970;-3.168;2022-12-10T08:30:22;17;15;
73565;PMS5003;61846;52.970;-3.168;2022-12-10T08:32:48;21;17;
73565;PMS5003;61846;52.970;-3.168;2022-12-10T08:35:13;40;30;
73565;PMS5003;61846;52.970;-3.168;2022-12-10T08:37:40;44;32;
73565;PMS5003;61846;52.970;-3.168;2022-12-10T08:40:03;42;30;
73565;PMS5003;61846;52.970;-3.168;2022-12-10T08:42:28;24;21;
73565;PMS5003;61846;52.970;-3.168;2022-12-10T08:44:54;28;21;
73565;PMS5003;61846;52.970;-3.168;2022-12-10T08:47:20;36;27;
73565;PMS5003;61846;52.970;-3.168;2022-12-10T08:49:45;34;30;
73565;PMS5003;61846;52.970;-3.168;2022-12-10T08:52:10;46;34;
73565;PMS5003;61846;52.970;-3.168;2022-12-10T08:54:36;42;30;
73565;PMS5003;61846;52.970;-3.168;2022-12-10T08:57:01;61;42;
73565;PMS5003;61846;52.970;-3.168;2022-12-10T08:59:27;53;39;
73565;PMS5003;61846;52.970;-3.168;2022-12-10T09:01:52;53;35;
73565;PMS5003;61846;52.970;-3.168;2022-12-10T09:04:18;51;41;
73565;PMS5003;61846;52.970;-3.168;2022-12-10T09:06:43;63;49;
73565;PMS5003;61846;52.970;-3.168;2022-12-10T09:09:08;77;61;
73565;PMS5003;61846;52.970;-3.168;2022-12-10T09:11:34;59;46;
73565;PMS5003;61846;52.970;-3.168;2022-12-10T09:14:00;34;31;
73565;PMS5003;61846;52.970;-3.168;2022-12-10T09:16:27;65;45;
73565;PMS5003;61846;52.970;-3.168;2022-12-10T09:18:51;111;87;
73565;PMS5003;61846;52.970;-3.168;2022-12-10T09:21:16;70;54;
73565;PMS5003;61846;52.970;-3.168;2022-12-10T09:23:42;50;45;
73565;PMS5003;61846;52.970;-3.168;2022-12-10T09:26:08;96;78;
73565;PMS5003;61846;52.970;-3.168;2022-12-10T09:28:33;105;86;
73565;PMS5003;61846;52.970;-3.168;2022-12-10T09:30:59;77;63;
73565;PMS5003;61846;52.970;-3.168;2022-12-10T09:33:25;114;92;
73565;PMS5003;61846;52.970;-3.168;2022-12-10T09:35:50;85;71;
73565;PMS5003;61846;52.970;-3.168;2022-12-10T09:38:15;46;43;
73565;PMS5003;61846;52.970;-3.168;2022-12-10T09:40:41;38;36;
73565;PMS5003;61846;52.970;-3.168;2022-12-10T09:43:09;42;32;
73565;PMS5003;61846;52.970;-3.168;2022-12-10T09:45:33;36;31;
73565;PMS5003;61846;52.970;-3.168;2022-12-10T09:48:00;63;48;
73565;PMS5003;61846;52.970;-3.168;2022-12-10T09:50:23;51;42;
73565;PMS5003;61846;52.970;-3.168;2022-12-10T09:52:48;49;41;
73565;PMS5003;61846;52.970;-3.168;2022-12-10T09:55:14;49;42;
73565;PMS5003;61846;52.970;-3.168;2022-12-10T09:57:39;70;52;
73565;PMS5003;61846;52.970;-3.168;2022-12-10T10:00:05;68;62;
73565;PMS5003;61846;52.970;-3.168;2022-12-10T10:02:34;57;44;
73565;PMS5003;61846;52.970;-3.168;2022-12-10T10:04:58;27;24;
73565;PMS5003;61846;52.970;-3.168;2022-12-10T10:07:21;32;25;
73565;PMS5003;61846;52.970;-3.168;2022-12-10T10:09:46;28;20;
73565;PMS5003;61846;52.970;-3.168;2022-12-10T10:12:11;29;22;
73565;PMS5003;61846;52.970;-3.168;2022-12-10T10:14:36;29;25;
73565;PMS5003;61846;52.970;-3.168;2022-12-10T10:17:02;24;22;
73565;PMS5003;61846;52.970;-3.168;2022-12-10T10:19:27;35;32;
73565;PMS5003;61846;52.970;-3.168;2022-12-10T10:21:52;35;29;
73565;PMS5003;61846;52.970;-3.168;2022-12-10T10:24:18;36;31;
73565;PMS5003;61846;52.970;-3.168;2022-12-10T10:26:44;40;32;
73565;PMS5003;61846;52.970;-3.168;2022-12-10T10:29:09;43;39;
73565;PMS5003;61846;52.970;-3.168;2022-12-10T10:31:35;55;42;
73565;PMS5003;61846;52.970;-3.168;2022-12-10T10:34:01;61;48;
73565;PMS5003;61846;52.970;-3.168;2022-12-10T10:36:26;50;43;
73565;PMS5003;61846;52.970;-3.168;2022-12-10T10:38:50;48;42;
73565;PMS5003;61846;52.970;-3.168;2022-12-10T10:41:16;48;39;
73565;PMS5003;61846;52.970;-3.168;2022-12-10T10:43:42;55;45;
73565;PMS5003;61846;52.970;-3.168;2022-12-10T10:46:10;62;48;
73565;PMS5003;61846;52.970;-3.168;2022-12-10T10:48:32;69;61;
73565;PMS5003;61846;52.970;-3.168;2022-12-10T10:53:25;68;52;
73565;PMS5003;61846;52.970;-3.168;2022-12-10T10:55:48;68;54;
73565;PMS5003;61846;52.970;-3.168;2022-12-10T10:58:17;74;59;
73565;PMS5003;61846;52.970;-3.168;2022-12-10T11:00:39;79;69;
73565;PMS5003;61846;52.970;-3.168;2022-12-10T11:03:05;75;73;
73565;PMS5003;61846;52.970;-3.168;2022-12-10T11:05:30;117;103;
73565;PMS5003;61846;52.970;-3.168;2022-12-10T11:07:57;135;117;
73565;PMS5003;61846;52.970;-3.168;2022-12-10T11:10:22;103;84;
73565;PMS5003;61846;52.970;-3.168;2022-12-10T11:17:38;185;150;
73565;PMS5003;61846;52.970;-3.168;2022-12-10T11:22:30;114;95;
73565;PMS5003;61846;52.970;-3.168;2022-12-10T11:24:55;86;75;
73565;PMS5003;61846;52.970;-3.168;2022-12-10T11:27:25;112;93;
73565;PMS5003;61846;52.970;-3.168;2022-12-10T11:29:47;100;86;
73565;PMS5003;61846;52.970;-3.168;2022-12-10T11:32:15;82;73;
73565;PMS5003;61846;52.970;-3.168;2022-12-10T11:34:38;104;88;
73565;PMS5003;61846;52.970;-3.168;2022-12-10T11:37:02;120;106;
73565;PMS5003;61846;52.970;-3.168;2022-12-10T11:39:32;97;83;
73565;PMS5003;61846;52.970;-3.168;2022-12-10T11:41:53;104;81;
73565;PMS5003;61846;52.970;-3.168;2022-12-10T11:44:19;97;81;
73565;PMS5003;61846;52.970;-3.168;2022-12-10T11:46:50;79;68;
73565;PMS5003;61846;52.970;-3.168;2022-12-10T11:49:12;85;72;
73565;PMS5003;61846;52.970;-3.168;2022-12-10T11:51:35;68;57;
73565;PMS5003;61846;52.970;-3.168;2022-12-10T11:54:03;52;43;
73565;PMS5003;61846;52.970;-3.168;2022-12-10T11:56:26;34;32;
73565;PMS5003;61846;52.970;-3.168;2022-12-10T12:01:17;41;32;
73565;PMS5003;61846;52.970;-3.168;2022-12-10T12:03:44;34;28;
73565;PMS5003;61846;52.970;-3.168;2022-12-10T12:06:09;27;18;
73565;PMS5003;61846;52.970;-3.168;2022-12-10T12:08:32;33;25;
73565;PMS5003;61846;52.970;-3.168;2022-12-10T12:11:05;41;32;
73565;PMS5003;61846;52.970;-3.168;2022-12-10T12:13:22;35;28;
73565;PMS5003;61846;52.970;-3.168;2022-12-10T12:15:48;30;27;
73565;PMS5003;61846;52.970;-3.168;2022-12-10T12:18:13;38;33;
73565;PMS5003;61846;52.970;-3.168;2022-12-10T12:20:38;37;28;
73565;PMS5003;61846;52.970;-3.168;2022-12-10T12:23:04;42;30;
73565;PMS5003;61846;52.970;-3.168;2022-12-10T12:25:29;33;29;
73565;PMS5003;61846;52.970;-3.168;2022-12-10T12:27:55;36;25;
73565;PMS5003;61846;52.970;-3.168;2022-12-10T12:30:20;24;21;
73565;PMS5003;61846;52.970;-3.168;2022-12-10T12:32:46;30;23;
73565;PMS5003;61846;52.970;-3.168;2022-12-10T12:35:10;21;17;
73565;PMS5003;61846;52.970;-3.168;2022-12-10T12:37:35;18;14;
73565;PMS5003;61846;52.970;-3.168;2022-12-10T12:40:02;42;37;
73565;PMS5003;61846;52.970;-3.168;2022-12-10T12:42:27;23;16;
73565;PMS5003;61846;52.970;-3.168;2022-12-10T12:44:55;20;19;
73565;PMS5003;61846;52.970;-3.168;2022-12-10T12:47:19;17;16;
73565;PMS5003;61846;52.970;-3.168;2022-12-10T12:49:42;8;7;
73565;PMS5003;61846;52.970;-3.168;2022-12-10T12:52:10;7;5;
73565;PMS5003;61846;52.970;-3.168;2022-12-10T12:54:32;6;6;
73565;PMS5003;61846;52.970;-3.168;2022-12-10T12:56:59;15;10;
73565;PMS5003;61846;52.970;-3.168;2022-12-10T12:59:26;20;11;
73565;PMS5003;61846;52.970;-3.168;2022-12-10T13:01:49;12;9;
73565;PMS5003;61846;52.970;-3.168;2022-12-10T13:04:14;29;23;
73565;PMS5003;61846;52.970;-3.168;2022-12-10T13:06:39;13;13;
73565;PMS5003;61846;52.970;-3.168;2022-12-10T13:11:31;7;5;
73565;PMS5003;61846;52.970;-3.168;2022-12-10T13:18:47;8;8;
73565;PMS5003;61846;52.970;-3.168;2022-12-10T13:21:17;6;5;
73565;PMS5003;61846;52.970;-3.168;2022-12-10T13:28:31;3;3;
73565;PMS5003;61846;52.970;-3.168;2022-12-10T13:33:21;3;3;
73565;PMS5003;61846;52.970;-3.168;2022-12-10T13:35:55;2;2;
73565;PMS5003;61846;52.970;-3.168;2022-12-10T13:38:18;7;6;
73565;PMS5003;61846;52.970;-3.168;2022-12-10T13:40:39;5;4;
73565;PMS5003;61846;52.970;-3.168;2022-12-10T13:45:31;11;9;
73565;PMS5003;61846;52.970;-3.168;2022-12-10T13:48:15;6;4;
73565;PMS5003;61846;52.970;-3.168;2022-12-10T13:50:24;10;8;
73565;PMS5003;61846;52.970;-3.168;2022-12-10T13:52:49;8;5;
73565;PMS5003;61846;52.970;-3.168;2022-12-10T13:57:47;24;17;
73565;PMS5003;61846;52.970;-3.168;2022-12-10T14:00:08;6;4;
73565;PMS5003;61846;52.970;-3.168;2022-12-10T14:02:36;4;4;
73565;PMS5003;61846;52.970;-3.168;2022-12-10T14:07:20;2;2;
73565;PMS5003;61846;52.970;-3.168;2022-12-10T14:09:46;4;4;
73565;PMS5003;61846;52.970;-3.168;2022-12-10T14:12:14;3;3;
73565;PMS5003;61846;52.970;-3.168;2022-12-10T14:14:38;2;2;
73565;PMS5003;61846;52.970;-3.168;2022-12-10T14:17:04;3;3;
73565;PMS5003;61846;52.970;-3.168;2022-12-10T14:19:28;6;4;
73565;PMS5003;61846;52.970;-3.168;2022-12-10T14:21:54;3;3;
73565;PMS5003;61846;52.970;-3.168;2022-12-10T14:24:27;3;3;
73565;PMS5003;61846;52.970;-3.168;2022-12-10T14:26:46;3;3;
73565;PMS5003;61846;52.970;-3.168;2022-12-10T14:29:17;4;4;
73565;PMS5003;61846;52.970;-3.168;2022-12-10T14:31:38;5;5;
73565;PMS5003;61846;52.970;-3.168;2022-12-10T14:34:03;2;2;
73565;PMS5003;61846;52.970;-3.168;2022-12-10T14:36:29;4;4;
73565;PMS5003;61846;52.970;-3.168;2022-12-10T14:38:54;6;2;
73565;PMS5003;61846;52.970;-3.168;2022-12-10T14:41:21;5;3;
73565;PMS5003;61846;52.970;-3.168;2022-12-10T14:43:46;10;7;
73565;PMS5003;61846;52.970;-3.168;2022-12-10T14:46:13;6;5;
73565;PMS5003;61846;52.970;-3.168;2022-12-10T14:48:38;1;1;
73565;PMS5003;61846;52.970;-3.168;2022-12-10T14:51:04;4;3;
73565;PMS5003;61846;52.970;-3.168;2022-12-10T14:53:30;3;3;
73565;PMS5003;61846;52.970;-3.168;2022-12-10T14:55:56;4;3;
73565;PMS5003;61846;52.970;-3.168;2022-12-10T14:58:22;3;3;
73565;PMS5003;61846;52.970;-3.168;2022-12-10T15:00:47;9;9;
73565;PMS5003;61846;52.970;-3.168;2022-12-10T15:03:23;9;9;
73565;PMS5003;61846;52.970;-3.168;2022-12-10T15:05:37;7;7;
73565;PMS5003;61846;52.970;-3.168;2022-12-10T15:08:03;8;7;
73565;PMS5003;61846;52.970;-3.168;2022-12-10T15:10:31;16;12;
73565;PMS5003;61846;52.970;-3.168;2022-12-10T15:12:54;6;5;
73565;PMS5003;61846;52.970;-3.168;2022-12-10T15:15:21;4;3;
73565;PMS5003;61846;52.970;-3.168;2022-12-10T15:20:18;20;20;
73565;PMS5003;61846;52.970;-3.168;2022-12-10T15:22:37;11;10;
73565;PMS5003;61846;52.970;-3.168;2022-12-10T15:27:28;13;12;
73565;PMS5003;61846;52.970;-3.168;2022-12-10T15:29:54;19;16;
73565;PMS5003;61846;52.970;-3.168;2022-12-10T15:32:20;19;15;
73565;PMS5003;61846;52.970;-3.168;2022-12-10T15:34:46;12;12;
73565;PMS5003;61846;52.970;-3.168;2022-12-10T15:37:15;10;9;
73565;PMS5003;61846;52.970;-3.168;2022-12-10T15:39:37;13;13;
73565;PMS5003;61846;52.970;-3.168;2022-12-10T15:42:04;17;15;
73565;PMS5003;61846;52.970;-3.168;2022-12-10T15:44:32;17;14;
73565;PMS5003;61846;52.970;-3.168;2022-12-10T15:46:58;22;17;
73565;PMS5003;61846;52.970;-3.168;2022-12-10T15:49:23;15;12;
73565;PMS5003;61846;52.970;-3.168;2022-12-10T15:51:43;9;9;
73565;PMS5003;61846;52.970;-3.168;2022-12-10T15:56:34;19;15;
73565;PMS5003;61846;52.970;-3.168;2022-12-10T15:58:59;12;11;
73565;PMS5003;61846;52.970;-3.168;2022-12-10T16:01:25;11;11;
73565;PMS5003;61846;52.970;-3.168;2022-12-10T16:03:51;26;20;
73565;PMS5003;61846;52.970;-3.168;2022-12-10T16:06:16;29;23;
73565;PMS5003;61846;52.970;-3.168;2022-12-10T16:08:42;21;15;
73565;PMS5003;61846;52.970;-3.168;2022-12-10T16:11:14;19;17;
73565;PMS5003;61846;52.970;-3.168;2022-12-10T16:13:34;13;12;
73565;PMS5003;61846;52.970;-3.168;2022-12-10T16:15:58;20;15;
73565;PMS5003;61846;52.970;-3.168;2022-12-10T16:18:23;13;12;
73565;PMS5003;61846;52.970;-3.168;2022-12-10T16:20:48;14;13;
73565;PMS5003;61846;52.970;-3.168;2022-12-10T16:23:14;29;21;
73565;PMS5003;61846;52.970;-3.168;2022-12-10T16:25:39;19;19;
73565;PMS5003;61846;52.970;-3.168;2022-12-10T16:28:04;20;18;
73565;PMS5003;61846;52.970;-3.168;2022-12-10T16:30:32;19;17;
73565;PMS5003;61846;52.970;-3.168;2022-12-10T16:32:56;15;12;
73565;PMS5003;61846;52.970;-3.168;2022-12-10T16:35:21;16;12;
73565;PMS5003;61846;52.970;-3.168;2022-12-10T16:37:47;18;16;
73565;PMS5003;61846;52.970;-3.168;2022-12-10T16:40:12;22;18;
73565;PMS5003;61846;52.970;-3.168;2022-12-10T16:42:37;32;29;
73565;PMS5003;61846;52.970;-3.168;2022-12-10T16:47:28;50;43;
73565;PMS5003;61846;52.970;-3.168;2022-12-10T16:52:19;49;39;